LPMA/FNC METAR and TAF weather

Enter ICAO airport designator
Station Type Date Time Source
LPMA METAR 2019/12/08 01:00 UTC NOAA

LPMA 080100Z 01009KT 9999 SCT015 SCT030 18/13 Q1029


Station Type Date Time Source
LPMA Decoded METAR 2019/12/08 01:00 UTC NOAA

Aeroporto Da Madeira, Portugal (LPMA) 32-41-52N 016-46-28W
Dec 07, 2019 - 08:00 PM EST / 2019.12.08 0100 UTC
Wind: from the N (010 degrees) at 10 MPH (9 KT):0
Visibility: greater than 7 mile(s):0
Sky conditions: partly cloudy
Temperature: 64 F (18 C)
Dew Point: 55 F (13 C)
Relative Humidity: 72%
Pressure (altimeter): 30.39 in. Hg (1029 hPa)
ob: LPMA 080100Z 01009KT 9999 SCT015 SCT030 18/13 Q1029
cycle: 1

Station Type Date Time Source
LPMA TAF 2019/12/07 18:18 UTC NOAA

TAF LPMA 071700Z 0718/0818 02013KT 9999 SCT015
BECMG 0722/0724 36008KT PROB30
TEMPO 0800/0812 6000 -RA BKN013

Example: see airport list